Grand Rapids, MI

11:16 PM EST on November 27, 2014 (GMT -0500)
Muskegon County | Change Station
CLOSE
Current Station
Airport
Location: Muskegon,
Elevation: 633 ft
Nearby Weather Stations

Elev 633 ft 43.17 °N, 86.24 °W | Updated 21 minutes ago

Overcast
Overcast
22 °F
Feels Like 17 °F
N
4
Wind Variable Wind from North

Today
High -- | Low -- °F
--% Chance of Precip.
Yesterday
High -- | Low -- °F
Precip. -- in
7:49 AM 5:10 PM
Waxing Crescent, 36% visible
Pressure 30.39 in
Visibility 9.0 miles
Clouds Overcast 3700 ft
Windchill 17 °F
Dew Point 12 °F
Humidity 66%
Rainfall 0.08 in
Snow Depth Not available.
UV 0 out of 12
Pollen .10 out of 12
Air Quality Not available.
Flu Activity Not available.
METAR KMKG 280355Z 01003KT 9SM -SN OVC037 M06/M11 A3036 RMK AO2 SLP289 LAST AUGMENTED OBS OF THE DAY UNTIL 1045Z P0000 T10561111

More Conditions Fewer Conditions

Pressure 30.39 in
Visibility 9.0 miles
Clouds Overcast 3700 ft
Windchill 17 °F
Dew Point 12 °F
Humidity 66%
Rainfall 0.08 in
Snow Depth Not available.
UV 0 out of 12
Pollen .10 out of 12
Air Quality Not available.
Flu Activity Not available.
METAR KMKG 280355Z 01003KT 9SM -SN OVC037 M06/M11 A3036 RMK AO2 SLP289 LAST AUGMENTED OBS OF THE DAY UNTIL 1045Z P0000 T10561111

More Conditions Fewer Conditions

10-Day Weather Forecast

Almanac

Astronomy

Nov. 27, 2014 Rise Set
Actual Time
Civil Twilight
Nautical Twilight
Astronomical Twilight
Moon
Length of Visible Light
Length of Day
Tomorrow will be .
, % of the Moon is Illuminated

Today's Extremes

State Highs State Lows

Community

WunderPhotos

Upload Photos

1,774,179 photos uploaded!

WunderBlogs® & News

Nearby

Air Quality

  Air Quality AQ Index Pollutant
Not available.

Snow Depth

Station Depth Elevation

Earthquake Activity

City Distance Mag. Time & Date
Minimum magnitude displayed is 2.5.

Coastal Water Temperatures

Place Temperature

Nearby Weather Stations